Terminal Aerodrome Forecast
Issued by NWS

Home | Current Version | Previous Version | Text Only | Print | Product List | Glossary On
Versions: 1 2 3 4 5 6 7 8 9 10 11 12 13
012
FTUS43 KOAX 191120
TAFSNY
TAF
KSNY 191120Z 1912/2012 27010KT P6SM BKN150 OVC200
     FM191800 29012KT P6SM BKN200
     FM200000 26008KT P6SM BKN150=

USA.gov is the U.S. government's official web portal to all federal, state and local government web resources and services.